Time;durP1;ratioP1;P1;durP2;ratioP2;P2;SDS_P1;SDS_P2;PMS_P1;PMS_P2;Temp;Humidity;BMP_temperature;BMP_pressure;BME280_temperature;BME280_humidity;BME280_pressure;Samples;Min_cycle;Max_cycle;Signal;HPM_P1;HPM_P2
2023/12/31 00:00:11;;;;;;;2.83;2.47;;;9.50;82.10;;;;;;4958805;28;20322;-82
2023/12/31 00:02:40;;;;;;;6.53;4.60;;;9.50;82.00;;;;;;4968225;28;20198;-82
2023/12/31 00:05:08;;;;;;;3.03;1.87;;;9.50;82.10;;;;;;4961910;28;20980;-82
2023/12/31 00:07:37;;;;;;;4.87;2.87;;;9.40;81.90;;;;;;4968853;28;20593;-81
2023/12/31 00:10:07;;;;;;;6.47;3.63;;;9.40;81.90;;;;;;4967137;28;20202;-81
2023/12/31 00:12:35;;;;;;;6.47;2.77;;;9.40;81.90;;;;;;4966499;28;20206;-80
2023/12/31 00:15:06;;;;;;;4.20;3.03;;;9.40;82.00;;;;;;4968351;28;20479;-81
2023/12/31 00:17:36;;;;;;;10.63;6.33;;;9.40;82.80;;;;;;4974416;28;20190;-82
2023/12/31 00:20:06;;;;;;;6.53;4.90;;;9.30;82.90;;;;;;4971862;28;20194;-82
2023/12/31 00:22:34;;;;;;;14.37;6.33;;;9.30;82.70;;;;;;4975102;28;20213;-82
2023/12/31 00:25:03;;;;;;;2.83;2.57;;;9.30;82.50;;;;;;4970520;28;20285;-81
2023/12/31 00:27:34;;;;;;;3.27;2.87;;;9.20;82.50;;;;;;4973264;28;20225;-81
2023/12/31 00:30:03;;;;;;;7.10;4.93;;;9.20;82.50;;;;;;4971354;28;20621;-82
2023/12/31 00:32:33;;;;;;;5.10;3.87;;;9.20;82.50;;;;;;4968432;28;20224;-81
2023/12/31 00:35:02;;;;;;;3.27;2.33;;;9.20;82.50;;;;;;4971387;28;20654;-82
2023/12/31 00:37:30;;;;;;;10.43;5.03;;;9.10;82.40;;;;;;4971517;28;20605;-82
2023/12/31 00:39:59;;;;;;;3.70;3.33;;;9.10;82.40;;;;;;4969422;28;20198;-82
2023/12/31 00:42:28;;;;;;;5.10;3.87;;;9.10;82.50;;;;;;4964088;28;20202;-82
2023/12/31 00:44:56;;;;;;;4.77;3.87;;;9.10;82.40;;;;;;4976284;28;20200;-83
2023/12/31 00:47:25;;;;;;;6.20;4.93;;;9.10;82.30;;;;;;4969779;28;20245;-82
2023/12/31 00:49:55;;;;;;;4.00;3.13;;;9.00;82.20;;;;;;4969536;28;20228;-82
2023/12/31 00:52:23;;;;;;;8.60;4.23;;;9.00;82.30;;;;;;4971690;28;20522;-82
2023/12/31 00:54:52;;;;;;;4.97;4.20;;;9.00;82.20;;;;;;4967895;28;20293;-82
2023/12/31 00:57:21;;;;;;;3.87;3.57;;;9.00;82.20;;;;;;4974038;28;20205;-82
2023/12/31 00:59:49;;;;;;;10.37;5.17;;;9.00;82.50;;;;;;4966277;28;20229;-82
2023/12/31 01:02:18;;;;;;;6.70;3.47;;;8.90;82.50;;;;;;4961941;28;20263;-82
2023/12/31 01:04:46;;;;;;;10.30;6.13;;;8.90;82.50;;;;;;4963079;28;20217;-82
2023/12/31 01:07:18;;;;;;;5.07;4.57;;;8.90;82.30;;;;;;4969188;28;20234;-82
2023/12/31 01:09:46;;;;;;;4.63;3.10;;;8.90;82.20;;;;;;4966653;28;20300;-82
2023/12/31 01:12:15;;;;;;;17.10;4.70;;;8.80;82.20;;;;;;4966720;28;20209;-82
2023/12/31 01:14:44;;;;;;;8.30;5.63;;;8.80;82.20;;;;;;4966046;28;20198;-82
2023/12/31 01:17:12;;;;;;;5.77;4.77;;;8.80;82.10;;;;;;4970320;28;20225;-82
2023/12/31 01:19:44;;;;;;;8.13;5.60;;;8.80;82.10;;;;;;4968508;28;20681;-82
2023/12/31 01:22:13;;;;;;;3.97;3.63;;;8.80;82.10;;;;;;4973096;28;20210;-81
2023/12/31 01:24:43;;;;;;;4.53;3.70;;;8.80;82.20;;;;;;4971546;28;20198;-81
2023/12/31 01:27:12;;;;;;;5.30;4.03;;;8.80;82.20;;;;;;4966641;28;20213;-81
2023/12/31 01:29:40;;;;;;;4.27;3.87;;;8.70;82.00;;;;;;4969968;28;20654;-81
2023/12/31 01:32:09;;;;;;;5.80;4.60;;;8.70;82.00;;;;;;4969804;28;20233;-82
2023/12/31 01:34:37;;;;;;;5.47;4.40;;;8.70;82.00;;;;;;4966071;28;20202;-83
2023/12/31 01:37:06;;;;;;;10.03;4.87;;;8.70;82.00;;;;;;4971604;28;20240;-82
2023/12/31 01:39:35;;;;;;;7.50;3.23;;;8.60;82.00;;;;;;4971195;28;20285;-82
2023/12/31 01:42:06;;;;;;;7.00;5.30;;;8.60;82.00;;;;;;4968301;28;20228;-82
2023/12/31 01:44:35;;;;;;;6.90;4.27;;;8.60;82.10;;;;;;4968601;28;20669;-84
2023/12/31 01:47:04;;;;;;;5.63;3.60;;;8.50;82.20;;;;;;4967739;28;20229;-83
2023/12/31 01:49:34;;;;;;;5.30;4.37;;;8.50;82.20;;;;;;4969899;28;20281;-83
2023/12/31 01:52:04;;;;;;;4.37;3.67;;;8.50;82.20;;;;;;4967871;28;20190;-83
2023/12/31 01:54:33;;;;;;;12.00;3.47;;;8.50;82.30;;;;;;4967076;28;20653;-82
2023/12/31 01:57:01;;;;;;;4.13;3.83;;;8.50;82.20;;;;;;4969291;28;20225;-81
2023/12/31 01:59:32;;;;;;;7.00;4.57;;;8.50;82.40;;;;;;4973179;28;20235;-81
2023/12/31 02:02:01;;;;;;;7.93;3.93;;;8.50;82.70;;;;;;4967551;28;20213;-82
2023/12/31 02:04:34;;;;;;;6.57;4.80;;;8.50;82.70;;;;;;4964110;28;20209;-81
2023/12/31 02:07:03;;;;;;;10.10;4.33;;;8.40;82.70;;;;;;4968215;28;20693;-81
2023/12/31 02:09:32;;;;;;;4.50;3.67;;;8.40;83.50;;;;;;4965178;28;20276;-82
2023/12/31 02:12:01;;;;;;;6.63;4.07;;;8.40;82.70;;;;;;4972931;28;20209;-81
2023/12/31 02:14:32;;;;;;;5.50;4.97;;;8.40;83.00;;;;;;4967910;28;20301;-81
2023/12/31 02:17:01;;;;;;;6.67;4.60;;;8.40;83.10;;;;;;4965067;28;20197;-81
2023/12/31 02:19:32;;;;;;;10.23;4.70;;;8.40;83.10;;;;;;4968277;28;20674;-82
2023/12/31 02:22:01;;;;;;;3.87;3.50;;;8.40;83.20;;;;;;4972766;28;20201;-82
2023/12/31 02:24:35;;;;;;;4.23;2.63;;;8.40;83.10;;;;;;4968735;28;20252;-82
2023/12/31 02:27:06;;;;;;;2.60;2.37;;;8.30;83.00;;;;;;4974479;28;20195;-82
2023/12/31 02:29:34;;;;;;;4.83;4.37;;;8.40;83.00;;;;;;4970039;28;20205;-87
2023/12/31 02:32:03;;;;;;;3.10;2.77;;;8.40;83.00;;;;;;4972602;28;20237;-87
2023/12/31 02:34:32;;;;;;;6.17;4.43;;;8.30;83.00;;;;;;4970184;28;20190;-87
2023/12/31 02:37:01;;;;;;;4.57;4.17;;;8.30;82.90;;;;;;4974177;28;20200;-87
2023/12/31 02:39:29;;;;;;;2.83;2.53;;;8.30;83.00;;;;;;4974169;28;20194;-87
2023/12/31 02:41:58;;;;;;;3.77;3.43;;;8.30;83.00;;;;;;4970217;28;20206;-86
2023/12/31 02:44:28;;;;;;;4.90;4.13;;;8.30;83.00;;;;;;4970678;28;20666;-87
2023/12/31 02:46:57;;;;;;;13.40;4.47;;;8.30;82.90;;;;;;4972895;28;20728;-86
2023/12/31 02:49:26;;;;;;;3.10;2.33;;;8.30;82.90;;;;;;4974371;28;20222;-87
2023/12/31 02:51:55;;;;;;;3.43;2.73;;;8.30;82.90;;;;;;4970876;28;20293;-86
2023/12/31 02:54:24;;;;;;;6.37;3.27;;;8.30;82.90;;;;;;4977760;28;20669;-87
2023/12/31 02:56:52;;;;;;;1.97;1.80;;;8.30;82.90;;;;;;4975485;28;20272;-85
2023/12/31 02:59:21;;;;;;;4.47;3.93;;;8.30;82.80;;;;;;4974328;28;20264;-85
2023/12/31 03:01:53;;;;;;;5.23;3.87;;;8.30;82.70;;;;;;4973224;28;20293;-85
2023/12/31 03:04:21;;;;;;;6.90;3.70;;;8.30;82.70;;;;;;4969301;28;20238;-86
2023/12/31 03:06:51;;;;;;;6.17;3.87;;;8.20;82.60;;;;;;4971488;28;20596;-85
2023/12/31 03:09:21;;;;;;;5.13;4.20;;;8.20;82.60;;;;;;4963939;28;20226;-83
2023/12/31 03:11:51;;;;;;;4.57;3.07;;;8.20;82.60;;;;;;4966678;28;20221;-83
2023/12/31 03:14:20;;;;;;;3.80;3.43;;;8.20;82.50;;;;;;4972262;28;20213;-86
2023/12/31 03:16:50;;;;;;;4.63;3.53;;;8.20;82.40;;;;;;4973302;28;20194;-87
2023/12/31 03:19:27;;;;;;;6.67;4.23;;;8.20;82.40;;;;;;4971879;28;20201;-86
2023/12/31 03:21:57;;;;;;;5.07;4.10;;;8.20;82.40;;;;;;4966978;28;20314;-85
2023/12/31 03:24:39;;;;;;;16.50;4.50;;;8.10;82.20;;;;;;4966404;28;20213;-86
2023/12/31 03:27:09;;;;;;;3.80;3.30;;;8.10;82.20;;;;;;4972197;28;20292;-84
2023/12/31 03:29:37;;;;;;;5.47;4.97;;;8.10;82.30;;;;;;4967959;28;20228;-83
2023/12/31 03:32:08;;;;;;;5.20;3.07;;;8.10;82.40;;;;;;4968839;28;20204;-82
2023/12/31 03:34:37;;;;;;;5.93;3.33;;;8.10;82.30;;;;;;4968864;28;20205;-86
2023/12/31 03:37:06;;;;;;;14.07;3.07;;;8.10;82.20;;;;;;4972540;28;20205;-87
2023/12/31 03:39:35;;;;;;;2.23;2.03;;;8.00;82.20;;;;;;4971004;28;20206;-87
2023/12/31 03:42:06;;;;;;;5.97;4.47;;;8.00;82.20;;;;;;4969692;28;20205;-87
2023/12/31 03:44:35;;;;;;;7.23;5.87;;;8.00;82.20;;;;;;4969886;28;20182;-87
2023/12/31 03:47:04;;;;;;;8.03;5.37;;;8.00;82.20;;;;;;4968050;28;20627;-86
2023/12/31 03:49:34;;;;;;;10.17;3.87;;;8.00;82.20;;;;;;4970482;28;20319;-85
2023/12/31 03:52:03;;;;;;;4.50;3.27;;;7.90;82.20;;;;;;4969169;28;20202;-86
2023/12/31 03:54:32;;;;;;;6.07;3.83;;;7.90;82.20;;;;;;4969456;28;20197;-86
2023/12/31 03:57:00;;;;;;;6.77;3.37;;;7.90;82.20;;;;;;4970447;28;20220;-87
2023/12/31 03:59:29;;;;;;;7.67;6.13;;;7.90;82.30;;;;;;4974444;28;20903;-84
2023/12/31 04:01:58;;;;;;;4.23;3.53;;;7.90;82.50;;;;;;4972282;28;20210;-88
2023/12/31 04:04:27;;;;;;;9.63;4.10;;;7.90;82.70;;;;;;4971833;28;20201;-87
2023/12/31 04:06:57;;;;;;;4.10;3.77;;;7.90;82.50;;;;;;4974973;28;20261;-85
2023/12/31 04:09:25;;;;;;;5.73;3.50;;;7.90;82.50;;;;;;4978338;28;20233;-84
2023/12/31 04:11:54;;;;;;;4.80;3.13;;;7.90;82.50;;;;;;4969408;28;20291;-84
2023/12/31 04:14:22;;;;;;;4.47;3.57;;;7.90;82.70;;;;;;4971561;28;20214;-83
2023/12/31 04:16:51;;;;;;;9.53;7.03;;;7.90;83.00;;;;;;4973224;28;20312;-83
2023/12/31 04:19:20;;;;;;;4.63;4.23;;;7.90;83.30;;;;;;4971168;28;20193;-83
2023/12/31 04:21:48;;;;;;;6.20;5.60;;;7.90;83.10;;;;;;4975043;28;20204;-83
2023/12/31 04:24:18;;;;;;;6.63;5.93;;;7.80;83.30;;;;;;4971118;28;20205;-83
2023/12/31 04:26:47;;;;;;;6.23;5.03;;;7.80;83.40;;;;;;4972224;28;20190;-83
2023/12/31 04:29:16;;;;;;;6.73;4.90;;;7.70;83.40;;;;;;4971153;28;20263;-83
2023/12/31 04:31:47;;;;;;;5.60;3.17;;;7.70;83.40;;;;;;4971383;28;20202;-83
2023/12/31 04:34:21;;;;;;;4.23;3.93;;;7.70;83.30;;;;;;4967094;28;20267;-83
2023/12/31 04:36:50;;;;;;;8.47;7.60;;;7.70;83.30;;;;;;4966931;28;20225;-85
2023/12/31 04:39:20;;;;;;;9.57;6.53;;;7.70;83.30;;;;;;4974081;28;20206;-84
2023/12/31 04:41:48;;;;;;;9.73;5.40;;;7.70;83.20;;;;;;4978416;28;20206;-84
2023/12/31 04:44:17;;;;;;;14.30;5.87;;;7.70;83.10;;;;;;4971637;28;20198;-83
2023/12/31 04:46:45;;;;;;;8.23;4.20;;;7.70;83.10;;;;;;4975113;28;20296;-84
2023/12/31 04:49:16;;;;;;;5.27;4.80;;;7.70;83.00;;;;;;4970891;28;20226;-85
2023/12/31 04:51:46;;;;;;;5.60;4.80;;;7.70;83.00;;;;;;4972107;28;20198;-84
2023/12/31 04:54:15;;;;;;;4.97;3.90;;;7.70;82.90;;;;;;4964889;28;20220;-85
2023/12/31 04:56:45;;;;;;;6.97;4.50;;;7.70;82.80;;;;;;4973859;28;20206;-84
2023/12/31 04:59:14;;;;;;;5.83;4.73;;;7.70;82.80;;;;;;4969149;28;20781;-84
2023/12/31 05:01:43;;;;;;;9.53;4.37;;;7.70;82.80;;;;;;4973925;28;20205;-83
2023/12/31 05:04:12;;;;;;;9.13;4.37;;;7.70;82.70;;;;;;4966634;28;20206;-83
2023/12/31 05:06:41;;;;;;;5.00;4.60;;;7.60;82.60;;;;;;4972074;28;20224;-82
2023/12/31 05:09:11;;;;;;;9.70;6.20;;;7.60;82.50;;;;;;4967960;28;20227;-83
2023/12/31 05:11:40;;;;;;;12.93;5.70;;;7.60;82.40;;;;;;4972249;28;20261;-83
2023/12/31 05:14:10;;;;;;;7.07;4.47;;;7.60;82.40;;;;;;4967585;28;20209;-83
2023/12/31 05:16:39;;;;;;;5.07;4.37;;;7.50;82.20;;;;;;4971997;28;20198;-83
2023/12/31 05:19:07;;;;;;;12.37;6.57;;;7.50;82.20;;;;;;4969664;28;20198;-82
2023/12/31 05:21:39;;;;;;;7.37;6.70;;;7.50;82.20;;;;;;4975087;28;20261;-82
2023/12/31 05:24:08;;;;;;;7.00;5.40;;;7.40;82.10;;;;;;4964712;28;20324;-79
2023/12/31 05:26:37;;;;;;;9.70;4.00;;;7.40;82.10;;;;;;4969305;28;20211;-80
2023/12/31 05:29:06;;;;;;;13.03;6.67;;;7.40;82.10;;;;;;4968432;28;20308;-81
2023/12/31 05:31:36;;;;;;;5.83;4.87;;;7.30;82.10;;;;;;4968349;28;20289;-84
2023/12/31 05:34:05;;;;;;;16.10;7.03;;;7.30;82.00;;;;;;4962626;28;20708;-81
2023/12/31 05:36:34;;;;;;;5.10;4.57;;;7.30;82.10;;;;;;4962467;28;20203;-80
2023/12/31 05:39:03;;;;;;;9.45;6.40;;;7.30;82.00;;;;;;4970034;28;20454;-82
2023/12/31 05:41:34;;;;;;;6.77;3.87;;;7.30;82.40;;;;;;4967032;28;20210;-84
2023/12/31 05:44:02;;;;;;;4.97;4.03;;;7.20;82.30;;;;;;4971563;28;20264;-85
2023/12/31 05:46:31;;;;;;;5.93;4.63;;;7.20;82.20;;;;;;4968722;28;20198;-87
2023/12/31 05:49:01;;;;;;;21.93;5.93;;;7.20;82.20;;;;;;4969915;28;20595;-87
2023/12/31 05:51:31;;;;;;;15.93;8.43;;;7.20;82.00;;;;;;4969269;28;20296;-85
2023/12/31 05:54:00;;;;;;;6.80;5.97;;;7.20;82.00;;;;;;4967833;28;20241;-86
2023/12/31 05:56:28;;;;;;;16.30;6.73;;;7.20;82.10;;;;;;4969034;28;20198;-85
2023/12/31 05:58:57;;;;;;;5.37;4.90;;;7.10;82.70;;;;;;4968787;28;20247;-84
2023/12/31 06:01:25;;;;;;;5.00;4.50;;;7.10;81.80;;;;;;4971741;28;20210;-83
2023/12/31 06:03:56;;;;;;;5.33;4.50;;;7.10;81.90;;;;;;4973397;28;20204;-85
2023/12/31 06:06:26;;;;;;;4.67;4.27;;;7.10;81.90;;;;;;4969993;28;20201;-85
2023/12/31 06:08:54;;;;;;;14.50;6.80;;;7.10;81.80;;;;;;4974094;28;20240;-85
2023/12/31 06:11:23;;;;;;;8.23;4.82;;;7.00;81.70;;;;;;4974168;28;20473;-85
2023/12/31 06:13:52;;;;;;;8.47;7.53;;;7.00;81.70;;;;;;4971233;28;20252;-85
2023/12/31 06:16:21;;;;;;;5.73;5.03;;;7.00;81.80;;;;;;4974216;28;20256;-86
2023/12/31 06:18:49;;;;;;;5.67;4.60;;;7.00;81.80;;;;;;4968372;28;20206;-86
2023/12/31 06:21:18;;;;;;;13.17;7.27;;;7.00;81.80;;;;;;4971558;28;20237;-86
2023/12/31 06:23:48;;;;;;;7.13;5.00;;;7.00;81.90;;;;;;4974130;28;20288;-86
2023/12/31 06:26:19;;;;;;;4.90;4.03;;;7.00;82.20;;;;;;4967036;28;20209;-87
2023/12/31 06:28:48;;;;;;;6.43;5.87;;;6.90;82.20;;;;;;4972673;28;20272;-88
2023/12/31 06:31:16;;;;;;;11.30;5.20;;;6.90;82.30;;;;;;4968885;28;20232;-87
2023/12/31 06:33:45;;;;;;;8.30;6.05;;;7.00;82.50;;;;;;4972771;28;21748;-89
2023/12/31 06:36:14;;;;;;;16.63;8.40;;;7.00;82.70;;;;;;4975328;28;20284;-87
2023/12/31 06:38:43;;;;;;;9.07;5.10;;;7.00;82.90;;;;;;4977508;28;20209;-88
2023/12/31 06:41:13;;;;;;;7.53;5.77;;;7.10;83.00;;;;;;4976498;28;20212;-87
2023/12/31 06:43:42;;;;;;;5.93;4.90;;;7.10;83.00;;;;;;4975701;28;20205;-88
2023/12/31 06:46:10;;;;;;;14.97;6.53;;;7.20;83.20;;;;;;4970890;28;20213;-87
2023/12/31 06:48:39;;;;;;;4.57;4.13;;;7.20;83.20;;;;;;4977167;28;20292;-88
2023/12/31 06:51:08;;;;;;;12.63;5.33;;;7.20;83.20;;;;;;4975835;28;20228;-87
2023/12/31 06:53:36;;;;;;;9.50;6.13;;;7.30;83.30;;;;;;4971484;28;20272;-88
2023/12/31 06:56:05;;;;;;;7.63;6.00;;;7.30;83.30;;;;;;4968613;28;20518;-87
2023/12/31 06:58:37;;;;;;;7.50;5.60;;;7.30;83.30;;;;;;4980337;28;20231;-85
2023/12/31 07:01:06;;;;;;;13.03;8.07;;;7.40;83.30;;;;;;4971110;28;20233;-85
2023/12/31 07:03:35;;;;;;;9.70;7.30;;;7.50;83.70;;;;;;4966132;28;20198;-86
2023/12/31 07:06:04;;;;;;;9.70;6.10;;;7.50;84.40;;;;;;4965428;28;20202;-88
2023/12/31 07:08:33;;;;;;;7.67;6.27;;;7.50;84.50;;;;;;4965972;28;20282;-80
2023/12/31 07:11:03;;;;;;;10.13;7.33;;;7.60;84.40;;;;;;4965618;28;20229;-82
2023/12/31 07:13:31;;;;;;;10.40;6.73;;;7.60;84.40;;;;;;4962281;28;20256;-81
2023/12/31 07:16:02;;;;;;;10.60;5.27;;;7.70;84.60;;;;;;4967551;28;20202;-81
2023/12/31 07:18:30;;;;;;;6.23;5.47;;;7.80;84.50;;;;;;4965486;28;20193;-81
2023/12/31 07:20:59;;;;;;;8.00;6.10;;;7.90;84.70;;;;;;4967981;28;20233;-83
2023/12/31 07:23:28;;;;;;;9.00;6.27;;;7.90;84.70;;;;;;4965249;28;20194;-81
2023/12/31 07:25:56;;;;;;;9.23;6.40;;;8.00;84.70;;;;;;4972323;28;20650;-82
2023/12/31 07:28:26;;;;;;;9.10;5.00;;;8.10;84.70;;;;;;4967884;28;20265;-82
2023/12/31 07:30:55;;;;;;;6.60;4.57;;;8.20;84.70;;;;;;4972633;28;20435;-81
2023/12/31 07:33:25;;;;;;;12.30;7.17;;;8.20;84.80;;;;;;4964946;28;20229;-86
2023/12/31 07:35:54;;;;;;;8.27;4.80;;;8.30;85.20;;;;;;4971064;28;20272;-87
2023/12/31 07:38:23;;;;;;;6.00;5.43;;;8.40;84.80;;;;;;4969170;28;20201;-86
2023/12/31 07:40:51;;;;;;;8.20;6.37;;;8.40;85.60;;;;;;4964583;28;20198;-85
2023/12/31 07:43:20;;;;;;;13.43;9.10;;;8.50;85.40;;;;;;4967356;28;20217;-80
2023/12/31 07:45:48;;;;;;;7.93;7.00;;;8.50;85.80;;;;;;4955648;28;20262;-81
2023/12/31 07:48:17;;;;;;;10.47;5.70;;;8.50;85.60;;;;;;4963282;28;20565;-80
2023/12/31 07:50:48;;;;;;;11.00;7.70;;;8.60;85.50;;;;;;4965156;28;20229;-82
2023/12/31 07:53:17;;;;;;;14.00;8.50;;;8.70;85.10;;;;;;4969247;28;20739;-82
2023/12/31 07:55:47;;;;;;;7.77;6.83;;;8.70;85.10;;;;;;4969428;28;20289;-83
2023/12/31 07:58:15;;;;;;;14.40;8.30;;;8.80;85.50;;;;;;4971858;28;20230;-84
2023/12/31 08:00:44;;;;;;;15.27;7.37;;;8.80;85.40;;;;;;4966329;28;20205;-88
2023/12/31 08:03:13;;;;;;;12.17;6.77;;;8.90;85.70;;;;;;4974539;28;20202;-87
2023/12/31 08:05:41;;;;;;;7.80;6.40;;;9.00;85.40;;;;;;4970736;28;20237;-85
2023/12/31 08:08:12;;;;;;;7.00;5.57;;;9.00;85.10;;;;;;4963685;28;20206;-85
2023/12/31 08:10:44;;;;;;;10.73;6.20;;;9.10;85.10;;;;;;4974365;28;20225;-84
2023/12/31 08:13:13;;;;;;;8.30;6.23;;;9.20;85.00;;;;;;4971116;28;20206;-85
2023/12/31 08:15:41;;;;;;;3.97;3.47;;;9.30;85.00;;;;;;4972958;28;20234;-88
2023/12/31 08:18:10;;;;;;;5.70;5.10;;;9.40;85.00;;;;;;4969171;28;20201;-88
2023/12/31 08:20:39;;;;;;;5.77;5.27;;;9.50;85.00;;;;;;4970830;28;20222;-85
2023/12/31 08:23:12;;;;;;;12.67;5.20;;;9.50;85.00;;;;;;4972889;28;20205;-90
2023/12/31 08:25:41;;;;;;;11.17;6.63;;;9.60;85.30;;;;;;4977983;28;20209;-89
2023/12/31 08:28:11;;;;;;;10.07;6.97;;;9.70;85.20;;;;;;4969200;28;20252;-90
2023/12/31 08:30:40;;;;;;;12.97;6.93;;;9.80;85.10;;;;;;4973587;28;20218;-90
2023/12/31 08:33:09;;;;;;;7.40;6.70;;;9.90;84.90;;;;;;4975587;28;20252;-89
2023/12/31 08:35:38;;;;;;;7.70;6.03;;;10.00;84.70;;;;;;4970928;28;20238;-87
2023/12/31 08:38:08;;;;;;;12.43;7.40;;;10.10;84.60;;;;;;4982570;28;20623;-89
2023/12/31 08:40:39;;;;;;;7.27;6.27;;;10.10;84.70;;;;;;4973016;28;20209;-84
2023/12/31 08:43:08;;;;;;;15.17;6.27;;;10.20;84.70;;;;;;4972897;28;20256;-82
2023/12/31 08:45:39;;;;;;;10.67;6.73;;;10.30;85.10;;;;;;4968670;28;20198;-91
2023/12/31 08:48:11;;;;;;;8.77;5.87;;;10.40;84.80;;;;;;4969767;28;20226;-83
2023/12/31 08:50:40;;;;;;;8.13;4.77;;;10.50;85.70;;;;;;4972589;28;20199;-82
2023/12/31 08:53:08;;;;;;;8.83;5.67;;;10.60;85.00;;;;;;4968146;28;20517;-85
2023/12/31 08:55:43;;;;;;;6.57;4.80;;;10.60;85.10;;;;;;4973815;28;20198;-81
2023/12/31 08:58:13;;;;;;;15.53;5.87;;;10.80;84.60;;;;;;4971659;28;20321;-84
2023/12/31 09:00:42;;;;;;;7.27;3.60;;;10.90;84.40;;;;;;4965139;28;20233;-81
2023/12/31 09:03:12;;;;;;;7.83;3.80;;;11.00;84.10;;;;;;4971640;28;20205;-82
2023/12/31 09:05:41;;;;;;;5.70;3.63;;;11.00;83.60;;;;;;4972227;28;20198;-82
2023/12/31 09:08:10;;;;;;;9.33;5.43;;;11.10;83.50;;;;;;4968635;28;20264;-81
2023/12/31 09:10:42;;;;;;;12.03;5.93;;;11.20;83.40;;;;;;4963935;28;20204;-81
2023/12/31 09:13:11;;;;;;;7.70;5.10;;;11.30;83.20;;;;;;4973682;28;20206;-83
2023/12/31 09:15:42;;;;;;;8.17;3.83;;;11.40;83.20;;;;;;4972693;28;20228;-83
2023/12/31 09:18:10;;;;;;;7.10;5.20;;;11.50;83.10;;;;;;4968429;28;20206;-82
2023/12/31 09:20:42;;;;;;;6.50;4.40;;;11.60;83.00;;;;;;4968596;28;20214;-82
2023/12/31 09:23:11;;;;;;;6.47;4.23;;;11.60;82.90;;;;;;4970505;28;20208;-82
2023/12/31 09:25:41;;;;;;;3.47;3.10;;;11.80;83.00;;;;;;4970253;28;20198;-81
2023/12/31 09:28:10;;;;;;;6.43;4.87;;;11.90;82.90;;;;;;4969657;28;20641;-82
2023/12/31 09:30:38;;;;;;;5.07;3.33;;;11.90;82.60;;;;;;4969050;28;20192;-84
2023/12/31 09:33:07;;;;;;;3.17;2.80;;;12.00;82.50;;;;;;4969662;28;20275;-83
2023/12/31 09:35:36;;;;;;;3.90;2.63;;;12.10;82.30;;;;;;4978836;28;20204;-83
2023/12/31 09:38:04;;;;;;;2.33;2.13;;;12.20;82.40;;;;;;4973471;28;20202;-81
2023/12/31 09:40:33;;;;;;;4.23;3.80;;;12.30;82.30;;;;;;4965378;28;20516;-82
2023/12/31 09:43:05;;;;;;;4.57;4.20;;;12.40;81.40;;;;;;4971105;28;20229;-81
2023/12/31 09:45:35;;;;;;;6.00;2.97;;;12.50;81.60;;;;;;4962563;28;20210;-81
2023/12/31 09:48:05;;;;;;;3.30;3.00;;;12.50;81.40;;;;;;4962566;28;20293;-81
2023/12/31 09:50:35;;;;;;;7.33;4.50;;;12.60;81.40;;;;;;4967849;28;20206;-82
2023/12/31 09:53:05;;;;;;;9.00;4.40;;;12.70;81.60;;;;;;4966940;28;20313;-82
2023/12/31 09:55:35;;;;;;;4.73;4.10;;;12.80;81.30;;;;;;4963848;28;20209;-82
2023/12/31 09:58:07;;;;;;;4.17;2.77;;;12.90;80.90;;;;;;4967627;28;20214;-81
2023/12/31 10:00:36;;;;;;;7.63;4.80;;;13.00;80.30;;;;;;4964784;28;20217;-81
2023/12/31 10:03:05;;;;;;;7.97;5.37;;;13.10;79.90;;;;;;4968028;28;20205;-83
2023/12/31 10:05:36;;;;;;;5.43;4.00;;;13.10;79.80;;;;;;4972845;28;20615;-85
2023/12/31 10:08:08;;;;;;;10.40;6.37;;;13.20;80.00;;;;;;4965107;28;20236;-80
2023/12/31 10:10:39;;;;;;;8.53;5.13;;;13.30;79.90;;;;;;4968167;28;20217;-82
2023/12/31 10:13:16;;;;;;;8.83;4.60;;;13.40;79.90;;;;;;4966062;28;20245;-83
2023/12/31 10:15:45;;;;;;;6.60;5.33;;;13.50;79.90;;;;;;4968919;28;20216;-83
2023/12/31 10:18:26;;;;;;;7.17;3.87;;;13.60;79.80;;;;;;4968135;28;20204;-83
2023/12/31 10:20:55;;;;;;;10.70;5.03;;;13.60;79.60;;;;;;4967172;28;20204;-82
2023/12/31 10:23:25;;;;;;;10.63;3.40;;;13.70;79.50;;;;;;4971603;28;20206;-82
2023/12/31 10:25:54;;;;;;;4.50;4.07;;;13.80;79.20;;;;;;4967172;28;20288;-82
2023/12/31 10:28:25;;;;;;;9.10;4.13;;;13.90;79.10;;;;;;4971333;28;20253;-82
2023/12/31 10:30:54;;;;;;;6.87;4.97;;;14.00;78.20;;;;;;4974787;28;20679;-81
2023/12/31 10:33:29;;;;;;;6.17;4.53;;;14.00;78.00;;;;;;4977042;28;20232;-82
2023/12/31 10:36:05;;;;;;;6.57;5.10;;;14.10;77.80;;;;;;4962126;28;20660;-82
2023/12/31 10:38:45;;;;;;;5.37;4.23;;;14.20;78.00;;;;;;4965117;28;20293;-83
2023/12/31 10:41:20;;;;;;;10.90;5.80;;;14.20;77.20;;;;;;4963644;28;20226;-82
2023/12/31 10:43:51;;;;;;;7.27;4.30;;;14.30;77.30;;;;;;4967664;28;20296;-84
2023/12/31 10:46:20;;;;;;;10.07;4.80;;;14.40;77.30;;;;;;4974730;28;20209;-83
2023/12/31 10:49:02;;;;;;;6.33;4.53;;;14.40;76.40;;;;;;4970794;28;20209;-84
2023/12/31 10:51:39;;;;;;;7.83;4.20;;;14.50;76.50;;;;;;4968655;28;20204;-82
2023/12/31 10:54:10;;;;;;;9.87;4.77;;;14.60;76.60;;;;;;4967872;28;20206;-83
2023/12/31 10:56:40;;;;;;;8.77;6.03;;;14.70;76.30;;;;;;4971673;28;20202;-83
2023/12/31 10:59:13;;;;;;;18.37;6.03;;;14.70;76.20;;;;;;4964181;28;20309;-83
2023/12/31 11:01:46;;;;;;;6.93;4.93;;;14.80;76.10;;;;;;4961908;28;20194;-83
2023/12/31 11:04:17;;;;;;;6.80;3.57;;;14.90;76.30;;;;;;4964296;28;20202;-82
2023/12/31 11:06:47;;;;;;;6.90;4.60;;;15.00;75.30;;;;;;4963424;28;20209;-83
2023/12/31 11:09:20;;;;;;;7.13;4.80;;;15.00;75.50;;;;;;4965619;28;20200;-82
2023/12/31 11:11:52;;;;;;;7.97;5.03;;;15.10;75.20;;;;;;4970348;28;20201;-83
2023/12/31 11:14:29;;;;;;;10.73;5.63;;;15.10;73.70;;;;;;4963916;28;20210;-83
2023/12/31 11:17:22;;;;;;;8.60;4.97;;;15.20;73.80;;;;;;4962870;28;20776;-83
2023/12/31 11:20:31;;;;;;;11.93;5.07;;;15.20;73.10;;;;;;4964548;28;20262;-82
2023/12/31 11:23:10;;;;;;;8.43;5.73;;;15.30;73.20;;;;;;4967453;28;20198;-82
2023/12/31 11:25:40;;;;;;;8.23;4.37;;;15.40;72.80;;;;;;4962639;28;20212;-82
2023/12/31 11:28:08;;;;;;;6.00;4.83;;;15.40;72.90;;;;;;4969082;28;20224;-83
2023/12/31 11:30:50;;;;;;;3.67;3.37;;;15.50;73.00;;;;;;4966258;28;20209;-82
2023/12/31 11:33:20;;;;;;;7.23;4.00;;;15.50;72.70;;;;;;4966614;28;20233;-82
2023/12/31 11:35:51;;;;;;;5.63;5.00;;;15.60;72.20;;;;;;4964231;28;20228;-81
2023/12/31 11:38:21;;;;;;;7.23;4.83;;;15.60;72.00;;;;;;4964993;28;20206;-81
2023/12/31 11:40:50;;;;;;;4.17;3.77;;;15.70;71.10;;;;;;4965512;28;20245;-82
2023/12/31 11:43:21;;;;;;;7.47;4.20;;;15.70;70.20;;;;;;4963377;28;20202;-82
2023/12/31 11:45:52;;;;;;;8.33;6.13;;;15.70;69.70;;;;;;4968544;28;20281;-83
2023/12/31 11:48:26;;;;;;;7.87;3.97;;;15.70;70.10;;;;;;4969464;28;20285;-82
2023/12/31 11:50:58;;;;;;;3.93;3.53;;;15.80;70.00;;;;;;4963060;28;20586;-80
2023/12/31 11:53:47;;;;;;;5.00;3.10;;;15.90;70.20;;;;;;4970700;28;20227;-82
2023/12/31 11:56:16;;;;;;;3.83;3.43;;;16.00;70.70;;;;;;4968924;28;20205;-82
2023/12/31 11:58:47;;;;;;;5.00;3.13;;;16.00;70.30;;;;;;4971670;28;20224;-81
2023/12/31 12:01:17;;;;;;;20.30;6.27;;;16.00;69.70;;;;;;4967593;28;20273;-82
2023/12/31 12:03:46;;;;;;;9.30;4.30;;;16.10;70.20;;;;;;4970012;28;20253;-81
2023/12/31 12:06:15;;;;;;;4.47;4.03;;;16.20;69.70;;;;;;4973991;28;20187;-81
2023/12/31 12:08:44;;;;;;;7.83;4.00;;;16.20;69.90;;;;;;4970452;28;20370;-81
2023/12/31 12:11:14;;;;;;;6.97;3.17;;;16.30;70.30;;;;;;4968249;28;20241;-81
2023/12/31 12:13:44;;;;;;;8.87;4.13;;;16.30;69.70;;;;;;4975218;28;20268;-81
2023/12/31 12:16:14;;;;;;;4.20;3.20;;;16.30;69.70;;;;;;4968487;28;20221;-82
2023/12/31 12:18:45;;;;;;;5.30;2.90;;;16.40;70.00;;;;;;4968610;28;20202;-81
2023/12/31 12:21:14;;;;;;;3.67;3.00;;;16.50;70.20;;;;;;4976161;28;20209;-82
2023/12/31 12:23:43;;;;;;;8.87;4.43;;;16.50;70.20;;;;;;4969910;28;20198;-80
2023/12/31 12:26:12;;;;;;;3.53;2.37;;;16.60;69.00;;;;;;4967504;28;20212;-81
2023/12/31 12:28:41;;;;;;;7.07;5.20;;;16.60;69.60;;;;;;4971768;28;20212;-81
2023/12/31 12:31:10;;;;;;;4.20;3.23;;;16.70;69.70;;;;;;4971758;28;20216;-81
2023/12/31 12:33:39;;;;;;;3.53;3.13;;;16.70;69.60;;;;;;4971481;28;20686;-82
2023/12/31 12:36:09;;;;;;;5.03;4.37;;;16.70;69.00;;;;;;4966345;28;22398;-82
2023/12/31 12:38:38;;;;;;;3.60;2.63;;;16.80;68.30;;;;;;4977349;28;20193;-80
2023/12/31 12:41:08;;;;;;;3.40;3.00;;;16.80;68.70;;;;;;4977155;28;20198;-82
2023/12/31 12:43:37;;;;;;;6.67;3.13;;;16.80;68.30;;;;;;4965296;28;20656;-81
2023/12/31 12:46:10;;;;;;;2.93;2.63;;;16.90;68.40;;;;;;4966368;28;20213;-81
2023/12/31 12:48:41;;;;;;;2.17;1.97;;;16.90;68.70;;;;;;4971836;28;20207;-83
2023/12/31 12:51:11;;;;;;;3.37;2.27;;;16.90;68.40;;;;;;4973583;28;20206;-82
2023/12/31 12:53:40;;;;;;;4.40;2.40;;;17.00;68.00;;;;;;4964149;28;20767;-82
2023/12/31 12:56:09;;;;;;;7.20;4.20;;;17.00;68.20;;;;;;4966921;28;20206;-82
2023/12/31 12:58:38;;;;;;;3.93;2.60;;;17.10;68.40;;;;;;4972557;28;20260;-81
2023/12/31 13:01:06;;;;;;;2.77;2.30;;;17.10;68.60;;;;;;4970271;28;20194;-81
2023/12/31 13:03:35;;;;;;;8.87;3.90;;;17.10;68.60;;;;;;4973195;28;20232;-82